sensor_id;sensor_type;location;lat;lon;timestamp;temperature;humidity
67555;HTU21D;54385;53.516;49.456;2023-05-07T00:00:28;5.67;66.31
67555;HTU21D;54385;53.516;49.456;2023-05-07T00:02:55;5.60;67.43
67555;HTU21D;54385;53.516;49.456;2023-05-07T00:05:21;5.48;67.25
67555;HTU21D;54385;53.516;49.456;2023-05-07T00:07:48;5.40;67.60
67555;HTU21D;54385;53.516;49.456;2023-05-07T00:10:15;5.41;67.59
67555;HTU21D;54385;53.516;49.456;2023-05-07T00:12:41;5.37;66.79
67555;HTU21D;54385;53.516;49.456;2023-05-07T00:15:09;5.33;67.84
67555;HTU21D;54385;53.516;49.456;2023-05-07T00:17:36;5.27;67.68
67555;HTU21D;54385;53.516;49.456;2023-05-07T00:20:04;5.22;67.49
67555;HTU21D;54385;53.516;49.456;2023-05-07T00:22:31;5.10;67.53
67555;HTU21D;54385;53.516;49.456;2023-05-07T00:24:58;4.98;67.84
67555;HTU21D;54385;53.516;49.456;2023-05-07T00:27:25;4.92;68.16
67555;HTU21D;54385;53.516;49.456;2023-05-07T00:29:52;4.84;68.27
67555;HTU21D;54385;53.516;49.456;2023-05-07T00:32:19;4.76;68.37
67555;HTU21D;54385;53.516;49.456;2023-05-07T00:34:45;4.72;68.79
67555;HTU21D;54385;53.516;49.456;2023-05-07T00:37:12;4.72;68.52
67555;HTU21D;54385;53.516;49.456;2023-05-07T00:39:39;4.68;68.36
67555;HTU21D;54385;53.516;49.456;2023-05-07T00:42:06;4.65;69.25
67555;HTU21D;54385;53.516;49.456;2023-05-07T00:44:33;4.61;68.62
67555;HTU21D;54385;53.516;49.456;2023-05-07T00:47:02;4.59;68.82
67555;HTU21D;54385;53.516;49.456;2023-05-07T00:49:43;4.56;66.97
67555;HTU21D;54385;53.516;49.456;2023-05-07T00:52:16;4.51;68.46
67555;HTU21D;54385;53.516;49.456;2023-05-07T00:54:43;4.47;68.58
67555;HTU21D;54385;53.516;49.456;2023-05-07T00:57:11;4.42;67.85
67555;HTU21D;54385;53.516;49.456;2023-05-07T00:59:38;4.36;67.65
67555;HTU21D;54385;53.516;49.456;2023-05-07T01:02:07;4.36;67.26
67555;HTU21D;54385;53.516;49.456;2023-05-07T01:04:34;4.35;67.66
67555;HTU21D;54385;53.516;49.456;2023-05-07T01:07:00;4.34;67.52
67555;HTU21D;54385;53.516;49.456;2023-05-07T01:09:28;4.42;67.28
67555;HTU21D;54385;53.516;49.456;2023-05-07T01:11:56;4.41;67.14
67555;HTU21D;54385;53.516;49.456;2023-05-07T01:14:24;4.38;67.51
67555;HTU21D;54385;53.516;49.456;2023-05-07T01:16:52;4.37;67.26
67555;HTU21D;54385;53.516;49.456;2023-05-07T01:19:19;4.36;67.95
67555;HTU21D;54385;53.516;49.456;2023-05-07T01:21:47;4.30;67.79
67555;HTU21D;54385;53.516;49.456;2023-05-07T01:24:15;4.28;68.05
67555;HTU21D;54385;53.516;49.456;2023-05-07T01:26:43;4.26;68.11
67555;HTU21D;54385;53.516;49.456;2023-05-07T01:29:10;4.21;68.47
67555;HTU21D;54385;53.516;49.456;2023-05-07T01:31:38;4.20;69.22
67555;HTU21D;54385;53.516;49.456;2023-05-07T01:34:08;4.24;69.67
67555;HTU21D;54385;53.516;49.456;2023-05-07T01:36:38;4.26;69.38
67555;HTU21D;54385;53.516;49.456;2023-05-07T01:39:06;4.33;69.26
67555;HTU21D;54385;53.516;49.456;2023-05-07T01:41:34;4.33;69.00
67555;HTU21D;54385;53.516;49.456;2023-05-07T01:44:03;4.33;69.10
67555;HTU21D;54385;53.516;49.456;2023-05-07T01:46:31;4.31;68.80
67555;HTU21D;54385;53.516;49.456;2023-05-07T01:48:59;4.36;68.81
67555;HTU21D;54385;53.516;49.456;2023-05-07T01:51:26;4.35;69.14
67555;HTU21D;54385;53.516;49.456;2023-05-07T01:53:53;4.33;69.16
67555;HTU21D;54385;53.516;49.456;2023-05-07T01:56:20;4.35;69.52
67555;HTU21D;54385;53.516;49.456;2023-05-07T01:58:47;4.37;69.04
67555;HTU21D;54385;53.516;49.456;2023-05-07T02:01:14;4.39;69.18
67555;HTU21D;54385;53.516;49.456;2023-05-07T02:03:41;4.45;69.71
67555;HTU21D;54385;53.516;49.456;2023-05-07T02:06:07;4.47;68.96
67555;HTU21D;54385;53.516;49.456;2023-05-07T02:08:34;4.48;68.84
67555;HTU21D;54385;53.516;49.456;2023-05-07T02:11:01;4.44;69.04
67555;HTU21D;54385;53.516;49.456;2023-05-07T02:13:31;4.50;69.20
67555;HTU21D;54385;53.516;49.456;2023-05-07T02:15:58;4.53;69.11
67555;HTU21D;54385;53.516;49.456;2023-05-07T02:18:25;4.59;68.99
67555;HTU21D;54385;53.516;49.456;2023-05-07T02:20:52;4.60;69.26
67555;HTU21D;54385;53.516;49.456;2023-05-07T02:23:19;4.64;68.99
67555;HTU21D;54385;53.516;49.456;2023-05-07T02:25:46;4.69;68.95
67555;HTU21D;54385;53.516;49.456;2023-05-07T02:28:13;4.79;68.80
67555;HTU21D;54385;53.516;49.456;2023-05-07T02:30:40;4.82;68.66
67555;HTU21D;54385;53.516;49.456;2023-05-07T02:33:07;4.87;68.16
67555;HTU21D;54385;53.516;49.456;2023-05-07T02:35:34;4.96;68.77
67555;HTU21D;54385;53.516;49.456;2023-05-07T02:38:01;5.04;67.91
67555;HTU21D;54385;53.516;49.456;2023-05-07T02:40:28;5.04;67.89
67555;HTU21D;54385;53.516;49.456;2023-05-07T02:42:55;5.11;67.57
67555;HTU21D;54385;53.516;49.456;2023-05-07T02:45:21;5.19;66.94
67555;HTU21D;54385;53.516;49.456;2023-05-07T02:47:48;5.22;66.65
67555;HTU21D;54385;53.516;49.456;2023-05-07T02:50:15;5.26;67.11
67555;HTU21D;54385;53.516;49.456;2023-05-07T02:52:42;5.30;66.94
67555;HTU21D;54385;53.516;49.456;2023-05-07T02:55:09;5.37;65.95
67555;HTU21D;54385;53.516;49.456;2023-05-07T02:57:35;5.37;66.25
67555;HTU21D;54385;53.516;49.456;2023-05-07T03:00:16;5.45;65.87
67555;HTU21D;54385;53.516;49.456;2023-05-07T03:02:44;5.49;65.25
67555;HTU21D;54385;53.516;49.456;2023-05-07T03:05:11;5.56;65.53
67555;HTU21D;54385;53.516;49.456;2023-05-07T03:07:38;5.65;65.40
67555;HTU21D;54385;53.516;49.456;2023-05-07T03:10:05;5.76;65.20
67555;HTU21D;54385;53.516;49.456;2023-05-07T03:12:32;5.86;65.28
67555;HTU21D;54385;53.516;49.456;2023-05-07T03:14:59;5.87;64.65
67555;HTU21D;54385;53.516;49.456;2023-05-07T03:17:26;5.97;63.47
67555;HTU21D;54385;53.516;49.456;2023-05-07T03:19:53;6.04;63.02
67555;HTU21D;54385;53.516;49.456;2023-05-07T03:22:19;6.07;62.46
67555;HTU21D;54385;53.516;49.456;2023-05-07T03:24:46;6.13;62.08
67555;HTU21D;54385;53.516;49.456;2023-05-07T03:27:13;6.19;61.47
67555;HTU21D;54385;53.516;49.456;2023-05-07T03:29:40;6.24;61.30
67555;HTU21D;54385;53.516;49.456;2023-05-07T03:32:06;6.34;61.16
67555;HTU21D;54385;53.516;49.456;2023-05-07T03:34:33;6.36;60.22
67555;HTU21D;54385;53.516;49.456;2023-05-07T03:37:00;6.36;59.76
67555;HTU21D;54385;53.516;49.456;2023-05-07T03:39:26;6.33;60.79
67555;HTU21D;54385;53.516;49.456;2023-05-07T03:41:53;6.37;60.21
67555;HTU21D;54385;53.516;49.456;2023-05-07T03:44:20;6.38;60.07
67555;HTU21D;54385;53.516;49.456;2023-05-07T03:46:46;6.41;59.09
67555;HTU21D;54385;53.516;49.456;2023-05-07T03:49:13;6.44;59.08
67555;HTU21D;54385;53.516;49.456;2023-05-07T03:51:40;6.49;58.64
67555;HTU21D;54385;53.516;49.456;2023-05-07T03:54:07;6.57;58.68
67555;HTU21D;54385;53.516;49.456;2023-05-07T03:56:34;6.61;59.19
67555;HTU21D;54385;53.516;49.456;2023-05-07T03:59:01;6.69;58.22
67555;HTU21D;54385;53.516;49.456;2023-05-07T04:01:28;6.67;57.37
67555;HTU21D;54385;53.516;49.456;2023-05-07T04:03:55;6.61;56.48
67555;HTU21D;54385;53.516;49.456;2023-05-07T04:06:22;6.65;57.61
67555;HTU21D;54385;53.516;49.456;2023-05-07T04:08:48;6.74;57.16
67555;HTU21D;54385;53.516;49.456;2023-05-07T04:11:15;6.78;57.46
67555;HTU21D;54385;53.516;49.456;2023-05-07T04:13:42;6.87;55.36
67555;HTU21D;54385;53.516;49.456;2023-05-07T04:16:09;6.94;55.94
67555;HTU21D;54385;53.516;49.456;2023-05-07T04:18:35;7.03;55.85
67555;HTU21D;54385;53.516;49.456;2023-05-07T04:21:02;6.97;54.63
67555;HTU21D;54385;53.516;49.456;2023-05-07T04:23:29;7.07;55.42
67555;HTU21D;54385;53.516;49.456;2023-05-07T04:25:56;7.11;51.33
67555;HTU21D;54385;53.516;49.456;2023-05-07T04:28:24;7.15;52.84
67555;HTU21D;54385;53.516;49.456;2023-05-07T04:30:50;7.15;50.88
67555;HTU21D;54385;53.516;49.456;2023-05-07T04:33:17;7.27;51.98
67555;HTU21D;54385;53.516;49.456;2023-05-07T04:35:44;7.33;51.39
67555;HTU21D;54385;53.516;49.456;2023-05-07T04:38:11;7.46;51.85
67555;HTU21D;54385;53.516;49.456;2023-05-07T04:40:37;7.57;50.99
67555;HTU21D;54385;53.516;49.456;2023-05-07T04:43:05;7.68;51.30
67555;HTU21D;54385;53.516;49.456;2023-05-07T04:45:32;7.82;50.59
67555;HTU21D;54385;53.516;49.456;2023-05-07T04:47:58;7.75;49.31
67555;HTU21D;54385;53.516;49.456;2023-05-07T04:50:25;7.74;48.60
67555;HTU21D;54385;53.516;49.456;2023-05-07T04:52:53;7.82;49.88
67555;HTU21D;54385;53.516;49.456;2023-05-07T04:55:20;7.88;48.89
67555;HTU21D;54385;53.516;49.456;2023-05-07T04:57:47;7.79;48.85
67555;HTU21D;54385;53.516;49.456;2023-05-07T05:00:14;7.77;49.79
67555;HTU21D;54385;53.516;49.456;2023-05-07T05:02:41;7.89;49.05
67555;HTU21D;54385;53.516;49.456;2023-05-07T05:05:08;7.90;48.65
67555;HTU21D;54385;53.516;49.456;2023-05-07T05:07:35;7.92;49.21
67555;HTU21D;54385;53.516;49.456;2023-05-07T05:10:03;8.02;49.96
67555;HTU21D;54385;53.516;49.456;2023-05-07T05:12:30;8.09;48.34
67555;HTU21D;54385;53.516;49.456;2023-05-07T05:14:57;8.05;47.83
67555;HTU21D;54385;53.516;49.456;2023-05-07T05:17:23;8.02;48.01
67555;HTU21D;54385;53.516;49.456;2023-05-07T05:19:52;7.98;45.75
67555;HTU21D;54385;53.516;49.456;2023-05-07T05:22:20;8.06;48.28
67555;HTU21D;54385;53.516;49.456;2023-05-07T05:24:47;8.28;48.69
67555;HTU21D;54385;53.516;49.456;2023-05-07T05:27:14;8.39;47.63
67555;HTU21D;54385;53.516;49.456;2023-05-07T05:29:41;8.47;46.37
67555;HTU21D;54385;53.516;49.456;2023-05-07T05:32:07;8.49;46.50
67555;HTU21D;54385;53.516;49.456;2023-05-07T05:34:34;8.37;46.70
67555;HTU21D;54385;53.516;49.456;2023-05-07T05:37:01;8.52;47.38
67555;HTU21D;54385;53.516;49.456;2023-05-07T05:39:28;8.46;48.17
67555;HTU21D;54385;53.516;49.456;2023-05-07T05:41:54;8.53;46.93
67555;HTU21D;54385;53.516;49.456;2023-05-07T05:44:21;8.53;44.79
67555;HTU21D;54385;53.516;49.456;2023-05-07T05:46:48;8.42;45.57
67555;HTU21D;54385;53.516;49.456;2023-05-07T05:49:16;8.35;44.50
67555;HTU21D;54385;53.516;49.456;2023-05-07T05:51:43;8.34;44.94
67555;HTU21D;54385;53.516;49.456;2023-05-07T05:54:09;8.45;45.12
67555;HTU21D;54385;53.516;49.456;2023-05-07T05:56:37;8.58;44.07
67555;HTU21D;54385;53.516;49.456;2023-05-07T05:59:06;8.73;44.73
67555;HTU21D;54385;53.516;49.456;2023-05-07T06:01:33;8.61;45.20
67555;HTU21D;54385;53.516;49.456;2023-05-07T06:04:00;8.58;44.50
67555;HTU21D;54385;53.516;49.456;2023-05-07T06:06:27;8.73;45.29
67555;HTU21D;54385;53.516;49.456;2023-05-07T06:08:54;8.61;45.43
67555;HTU21D;54385;53.516;49.456;2023-05-07T06:11:21;8.65;46.81
67555;HTU21D;54385;53.516;49.456;2023-05-07T06:13:47;8.77;46.04
67555;HTU21D;54385;53.516;49.456;2023-05-07T06:16:14;8.63;43.32
67555;HTU21D;54385;53.516;49.456;2023-05-07T06:18:45;8.45;44.48
67555;HTU21D;54385;53.516;49.456;2023-05-07T06:21:13;8.50;43.65
67555;HTU21D;54385;53.516;49.456;2023-05-07T06:23:40;8.47;41.67
67555;HTU21D;54385;53.516;49.456;2023-05-07T06:26:07;8.48;41.74
67555;HTU21D;54385;53.516;49.456;2023-05-07T06:28:34;8.64;40.99
67555;HTU21D;54385;53.516;49.456;2023-05-07T06:31:19;8.42;41.57
67555;HTU21D;54385;53.516;49.456;2023-05-07T06:33:49;8.50;42.16
67555;HTU21D;54385;53.516;49.456;2023-05-07T06:36:16;8.79;41.34
67555;HTU21D;54385;53.516;49.456;2023-05-07T06:38:42;8.90;40.30
67555;HTU21D;54385;53.516;49.456;2023-05-07T06:41:09;8.95;41.74
67555;HTU21D;54385;53.516;49.456;2023-05-07T06:43:36;9.04;41.54
67555;HTU21D;54385;53.516;49.456;2023-05-07T06:46:03;9.20;42.05
67555;HTU21D;54385;53.516;49.456;2023-05-07T06:48:29;9.41;42.03
67555;HTU21D;54385;53.516;49.456;2023-05-07T06:50:56;9.46;41.28
67555;HTU21D;54385;53.516;49.456;2023-05-07T06:53:24;9.11;41.12
67555;HTU21D;54385;53.516;49.456;2023-05-07T06:55:52;8.93;39.95
67555;HTU21D;54385;53.516;49.456;2023-05-07T06:58:19;8.91;39.94
67555;HTU21D;54385;53.516;49.456;2023-05-07T07:00:46;9.00;38.28
67555;HTU21D;54385;53.516;49.456;2023-05-07T07:03:12;9.19;37.57
67555;HTU21D;54385;53.516;49.456;2023-05-07T07:05:41;9.23;33.98
67555;HTU21D;54385;53.516;49.456;2023-05-07T07:08:08;9.01;31.86
67555;HTU21D;54385;53.516;49.456;2023-05-07T07:10:34;8.85;34.34
67555;HTU21D;54385;53.516;49.456;2023-05-07T07:13:01;9.01;35.86
67555;HTU21D;54385;53.516;49.456;2023-05-07T07:15:28;9.24;34.89
67555;HTU21D;54385;53.516;49.456;2023-05-07T07:17:55;9.29;34.40
67555;HTU21D;54385;53.516;49.456;2023-05-07T07:20:22;9.41;32.29
67555;HTU21D;54385;53.516;49.456;2023-05-07T07:22:48;9.27;31.96
67555;HTU21D;54385;53.516;49.456;2023-05-07T07:25:18;9.30;32.11
67555;HTU21D;54385;53.516;49.456;2023-05-07T07:27:45;9.54;34.05
67555;HTU21D;54385;53.516;49.456;2023-05-07T07:30:12;9.51;34.54
67555;HTU21D;54385;53.516;49.456;2023-05-07T07:32:38;9.21;34.53
67555;HTU21D;54385;53.516;49.456;2023-05-07T07:35:05;9.30;36.46
67555;HTU21D;54385;53.516;49.456;2023-05-07T07:37:32;9.44;35.04
67555;HTU21D;54385;53.516;49.456;2023-05-07T07:40:00;9.56;35.21
67555;HTU21D;54385;53.516;49.456;2023-05-07T07:42:26;9.59;34.15
67555;HTU21D;54385;53.516;49.456;2023-05-07T07:44:53;9.70;33.33
67555;HTU21D;54385;53.516;49.456;2023-05-07T07:47:20;9.80;33.04
67555;HTU21D;54385;53.516;49.456;2023-05-07T07:49:47;9.65;33.28
67555;HTU21D;54385;53.516;49.456;2023-05-07T07:52:13;9.70;34.93
67555;HTU21D;54385;53.516;49.456;2023-05-07T07:54:41;9.82;33.70
67555;HTU21D;54385;53.516;49.456;2023-05-07T07:57:07;9.79;32.84
67555;HTU21D;54385;53.516;49.456;2023-05-07T07:59:34;9.65;33.12
67555;HTU21D;54385;53.516;49.456;2023-05-07T08:02:01;9.74;33.19
67555;HTU21D;54385;53.516;49.456;2023-05-07T08:04:28;9.84;33.92
67555;HTU21D;54385;53.516;49.456;2023-05-07T08:06:54;9.97;33.35
67555;HTU21D;54385;53.516;49.456;2023-05-07T08:09:22;10.00;33.27
67555;HTU21D;54385;53.516;49.456;2023-05-07T08:11:49;9.91;34.02
67555;HTU21D;54385;53.516;49.456;2023-05-07T08:14:16;9.93;33.89
67555;HTU21D;54385;53.516;49.456;2023-05-07T08:16:42;10.01;34.36
67555;HTU21D;54385;53.516;49.456;2023-05-07T08:19:09;10.06;34.26
67555;HTU21D;54385;53.516;49.456;2023-05-07T08:21:39;9.95;33.81
67555;HTU21D;54385;53.516;49.456;2023-05-07T08:24:06;10.09;33.31
67555;HTU21D;54385;53.516;49.456;2023-05-07T08:26:33;10.39;32.92
67555;HTU21D;54385;53.516;49.456;2023-05-07T08:29:00;10.35;32.55
67555;HTU21D;54385;53.516;49.456;2023-05-07T08:31:26;10.15;33.38
67555;HTU21D;54385;53.516;49.456;2023-05-07T08:33:53;10.07;32.95
67555;HTU21D;54385;53.516;49.456;2023-05-07T08:36:20;10.24;34.13
67555;HTU21D;54385;53.516;49.456;2023-05-07T08:38:47;10.36;34.26
67555;HTU21D;54385;53.516;49.456;2023-05-07T08:41:14;10.00;35.18
67555;HTU21D;54385;53.516;49.456;2023-05-07T08:43:41;9.85;34.08
67555;HTU21D;54385;53.516;49.456;2023-05-07T08:46:09;9.27;34.67
67555;HTU21D;54385;53.516;49.456;2023-05-07T08:48:37;9.26;35.66
67555;HTU21D;54385;53.516;49.456;2023-05-07T08:51:05;9.71;36.46
67555;HTU21D;54385;53.516;49.456;2023-05-07T08:53:33;10.23;35.04
67555;HTU21D;54385;53.516;49.456;2023-05-07T08:56:00;10.33;34.60
67555;HTU21D;54385;53.516;49.456;2023-05-07T08:58:27;10.26;33.73
67555;HTU21D;54385;53.516;49.456;2023-05-07T09:00:54;10.27;32.87
67555;HTU21D;54385;53.516;49.456;2023-05-07T09:03:21;10.48;33.42
67555;HTU21D;54385;53.516;49.456;2023-05-07T09:05:48;10.45;33.66
67555;HTU21D;54385;53.516;49.456;2023-05-07T09:08:15;10.77;33.07
67555;HTU21D;54385;53.516;49.456;2023-05-07T09:10:42;10.89;33.25
67555;HTU21D;54385;53.516;49.456;2023-05-07T09:13:11;11.16;32.25
67555;HTU21D;54385;53.516;49.456;2023-05-07T09:15:40;11.08;32.39
67555;HTU21D;54385;53.516;49.456;2023-05-07T09:18:07;11.05;32.31
67555;HTU21D;54385;53.516;49.456;2023-05-07T09:20:36;10.97;31.59
67555;HTU21D;54385;53.516;49.456;2023-05-07T09:23:03;10.50;33.38
67555;HTU21D;54385;53.516;49.456;2023-05-07T09:25:32;10.45;33.54
67555;HTU21D;54385;53.516;49.456;2023-05-07T09:27:59;10.64;33.91
67555;HTU21D;54385;53.516;49.456;2023-05-07T09:30:33;10.69;32.45
67555;HTU21D;54385;53.516;49.456;2023-05-07T09:33:02;10.34;33.53
67555;HTU21D;54385;53.516;49.456;2023-05-07T09:35:30;10.24;34.31
67555;HTU21D;54385;53.516;49.456;2023-05-07T09:37:58;10.55;33.12
67555;HTU21D;54385;53.516;49.456;2023-05-07T09:40:27;10.60;33.89
67555;HTU21D;54385;53.516;49.456;2023-05-07T09:42:54;10.43;33.27
67555;HTU21D;54385;53.516;49.456;2023-05-07T09:45:28;10.40;33.23
67555;HTU21D;54385;53.516;49.456;2023-05-07T09:47:56;10.59;33.12
67555;HTU21D;54385;53.516;49.456;2023-05-07T09:50:29;10.67;33.52
67555;HTU21D;54385;53.516;49.456;2023-05-07T09:52:56;10.46;34.08
67555;HTU21D;54385;53.516;49.456;2023-05-07T09:55:24;10.70;33.50
67555;HTU21D;54385;53.516;49.456;2023-05-07T09:57:52;11.59;32.18
67555;HTU21D;54385;53.516;49.456;2023-05-07T10:00:21;12.57;30.85
67555;HTU21D;54385;53.516;49.456;2023-05-07T10:02:52;13.18;30.16
67555;HTU21D;54385;53.516;49.456;2023-05-07T10:05:19;13.40;28.65
67555;HTU21D;54385;53.516;49.456;2023-05-07T10:07:49;13.58;28.36
67555;HTU21D;54385;53.516;49.456;2023-05-07T10:10:17;14.25;27.23
67555;HTU21D;54385;53.516;49.456;2023-05-07T10:12:45;14.29;26.22
67555;HTU21D;54385;53.516;49.456;2023-05-07T10:15:12;13.90;26.88
67555;HTU21D;54385;53.516;49.456;2023-05-07T10:17:39;13.19;26.80
67555;HTU21D;54385;53.516;49.456;2023-05-07T10:20:07;13.52;27.46
67555;HTU21D;54385;53.516;49.456;2023-05-07T10:22:41;13.85;26.81
67555;HTU21D;54385;53.516;49.456;2023-05-07T10:25:22;14.15;25.17
67555;HTU21D;54385;53.516;49.456;2023-05-07T10:27:50;14.48;26.42
67555;HTU21D;54385;53.516;49.456;2023-05-07T10:32:59;15.08;26.52
67555;HTU21D;54385;53.516;49.456;2023-05-07T10:35:37;15.04;25.36
67555;HTU21D;54385;53.516;49.456;2023-05-07T10:38:05;15.16;25.41
67555;HTU21D;54385;53.516;49.456;2023-05-07T10:40:32;14.88;25.66
67555;HTU21D;54385;53.516;49.456;2023-05-07T10:43:01;14.94;27.10
67555;HTU21D;54385;53.516;49.456;2023-05-07T10:45:28;15.27;25.54
67555;HTU21D;54385;53.516;49.456;2023-05-07T10:48:05;15.60;22.55
67555;HTU21D;54385;53.516;49.456;2023-05-07T10:50:32;16.31;23.00
67555;HTU21D;54385;53.516;49.456;2023-05-07T10:55:48;15.66;24.88
67555;HTU21D;54385;53.516;49.456;2023-05-07T10:58:23;15.19;24.14
67555;HTU21D;54385;53.516;49.456;2023-05-07T11:00:57;14.36;24.75
67555;HTU21D;54385;53.516;49.456;2023-05-07T11:03:25;14.10;25.65
67555;HTU21D;54385;53.516;49.456;2023-05-07T11:06:12;14.96;24.61
67555;HTU21D;54385;53.516;49.456;2023-05-07T11:08:57;15.54;24.04
67555;HTU21D;54385;53.516;49.456;2023-05-07T11:12:00;15.38;23.31
67555;HTU21D;54385;53.516;49.456;2023-05-07T11:14:52;14.69;24.53
67555;HTU21D;54385;53.516;49.456;2023-05-07T11:17:20;14.10;25.14
67555;HTU21D;54385;53.516;49.456;2023-05-07T11:19:55;14.00;24.89
67555;HTU21D;54385;53.516;49.456;2023-05-07T11:25:02;15.15;23.39
67555;HTU21D;54385;53.516;49.456;2023-05-07T11:27:29;16.26;22.09
67555;HTU21D;54385;53.516;49.456;2023-05-07T11:29:56;16.20;22.63
67555;HTU21D;54385;53.516;49.456;2023-05-07T11:32:30;16.46;22.21
67555;HTU21D;54385;53.516;49.456;2023-05-07T11:34:59;16.64;22.64
67555;HTU21D;54385;53.516;49.456;2023-05-07T11:37:27;16.24;22.64
67555;HTU21D;54385;53.516;49.456;2023-05-07T11:40:07;15.71;22.02
67555;HTU21D;54385;53.516;49.456;2023-05-07T11:42:35;16.08;23.46
67555;HTU21D;54385;53.516;49.456;2023-05-07T11:45:05;17.01;21.92
67555;HTU21D;54385;53.516;49.456;2023-05-07T11:47:32;16.70;21.22
67555;HTU21D;54385;53.516;49.456;2023-05-07T11:50:07;16.03;22.65
67555;HTU21D;54385;53.516;49.456;2023-05-07T11:52:34;16.57;22.31
67555;HTU21D;54385;53.516;49.456;2023-05-07T11:55:02;16.24;22.46
67555;HTU21D;54385;53.516;49.456;2023-05-07T11:57:33;15.81;22.49
67555;HTU21D;54385;53.516;49.456;2023-05-07T12:00:01;15.90;23.50
67555;HTU21D;54385;53.516;49.456;2023-05-07T12:02:30;16.81;21.74
67555;HTU21D;54385;53.516;49.456;2023-05-07T12:05:00;17.43;21.53
67555;HTU21D;54385;53.516;49.456;2023-05-07T12:07:27;17.94;20.28
67555;HTU21D;54385;53.516;49.456;2023-05-07T12:09:54;17.36;21.05
67555;HTU21D;54385;53.516;49.456;2023-05-07T12:12:21;16.91;21.37
67555;HTU21D;54385;53.516;49.456;2023-05-07T12:14:48;15.97;21.70
67555;HTU21D;54385;53.516;49.456;2023-05-07T12:17:16;15.63;22.59
67555;HTU21D;54385;53.516;49.456;2023-05-07T12:19:43;15.18;23.28
67555;HTU21D;54385;53.516;49.456;2023-05-07T12:22:11;15.60;23.54
67555;HTU21D;54385;53.516;49.456;2023-05-07T12:24:57;16.36;21.95
67555;HTU21D;54385;53.516;49.456;2023-05-07T12:27:25;16.16;21.76
67555;HTU21D;54385;53.516;49.456;2023-05-07T12:29:53;16.13;21.98
67555;HTU21D;54385;53.516;49.456;2023-05-07T12:32:21;15.09;23.01
67555;HTU21D;54385;53.516;49.456;2023-05-07T12:34:51;14.80;23.98
67555;HTU21D;54385;53.516;49.456;2023-05-07T12:37:26;14.95;22.88
67555;HTU21D;54385;53.516;49.456;2023-05-07T12:40:09;15.89;22.40
67555;HTU21D;54385;53.516;49.456;2023-05-07T12:42:40;16.85;21.47
67555;HTU21D;54385;53.516;49.456;2023-05-07T12:45:11;17.29;20.19
67555;HTU21D;54385;53.516;49.456;2023-05-07T12:47:38;17.87;19.91
67555;HTU21D;54385;53.516;49.456;2023-05-07T12:50:06;18.35;18.75
67555;HTU21D;54385;53.516;49.456;2023-05-07T12:52:33;18.29;19.73
67555;HTU21D;54385;53.516;49.456;2023-05-07T12:55:07;17.45;19.47
67555;HTU21D;54385;53.516;49.456;2023-05-07T12:57:48;16.62;21.12
67555;HTU21D;54385;53.516;49.456;2023-05-07T13:00:17;16.65;20.96
67555;HTU21D;54385;53.516;49.456;2023-05-07T13:02:45;16.45;20.73
67555;HTU21D;54385;53.516;49.456;2023-05-07T13:05:12;16.71;20.43
67555;HTU21D;54385;53.516;49.456;2023-05-07T13:07:39;16.72;20.25
67555;HTU21D;54385;53.516;49.456;2023-05-07T13:10:07;17.46;19.93
67555;HTU21D;54385;53.516;49.456;2023-05-07T13:12:34;18.03;19.25
67555;HTU21D;54385;53.516;49.456;2023-05-07T13:15:01;17.63;19.10
67555;HTU21D;54385;53.516;49.456;2023-05-07T13:17:28;17.54;19.76
67555;HTU21D;54385;53.516;49.456;2023-05-07T13:19:54;17.98;19.03
67555;HTU21D;54385;53.516;49.456;2023-05-07T13:22:21;18.29;18.48
67555;HTU21D;54385;53.516;49.456;2023-05-07T13:24:48;16.94;19.63
67555;HTU21D;54385;53.516;49.456;2023-05-07T13:27:15;15.67;21.61
67555;HTU21D;54385;53.516;49.456;2023-05-07T13:29:42;15.62;21.92
67555;HTU21D;54385;53.516;49.456;2023-05-07T13:32:08;15.32;22.18
67555;HTU21D;54385;53.516;49.456;2023-05-07T13:34:35;14.85;22.89
67555;HTU21D;54385;53.516;49.456;2023-05-07T13:37:03;15.57;22.47
67555;HTU21D;54385;53.516;49.456;2023-05-07T13:39:30;16.30;21.72
67555;HTU21D;54385;53.516;49.456;2023-05-07T13:41:56;15.56;22.50
67555;HTU21D;54385;53.516;49.456;2023-05-07T13:44:23;14.91;23.23
67555;HTU21D;54385;53.516;49.456;2023-05-07T13:46:50;14.59;23.46
67555;HTU21D;54385;53.516;49.456;2023-05-07T13:49:17;14.73;23.67
67555;HTU21D;54385;53.516;49.456;2023-05-07T13:51:44;14.47;24.15
67555;HTU21D;54385;53.516;49.456;2023-05-07T13:54:11;14.20;24.96
67555;HTU21D;54385;53.516;49.456;2023-05-07T13:56:39;14.22;24.03
67555;HTU21D;54385;53.516;49.456;2023-05-07T13:59:06;14.24;24.23
67555;HTU21D;54385;53.516;49.456;2023-05-07T14:01:35;13.67;25.30
67555;HTU21D;54385;53.516;49.456;2023-05-07T14:04:02;13.55;25.57
67555;HTU21D;54385;53.516;49.456;2023-05-07T14:06:29;13.36;24.83
67555;HTU21D;54385;53.516;49.456;2023-05-07T14:08:56;13.03;25.20
67555;HTU21D;54385;53.516;49.456;2023-05-07T14:11:24;12.75;26.59
67555;HTU21D;54385;53.516;49.456;2023-05-07T14:13:51;12.38;27.09
67555;HTU21D;54385;53.516;49.456;2023-05-07T14:16:17;12.34;26.68
67555;HTU21D;54385;53.516;49.456;2023-05-07T14:18:44;12.22;27.24
67555;HTU21D;54385;53.516;49.456;2023-05-07T14:21:11;12.17;27.24
67555;HTU21D;54385;53.516;49.456;2023-05-07T14:23:37;11.92;27.81
67555;HTU21D;54385;53.516;49.456;2023-05-07T14:26:04;11.70;28.02
67555;HTU21D;54385;53.516;49.456;2023-05-07T14:28:31;11.76;28.73
67555;HTU21D;54385;53.516;49.456;2023-05-07T14:30:58;11.79;28.68
67555;HTU21D;54385;53.516;49.456;2023-05-07T14:33:24;11.71;28.49
67555;HTU21D;54385;53.516;49.456;2023-05-07T14:35:51;11.74;28.83
67555;HTU21D;54385;53.516;49.456;2023-05-07T14:38:18;11.66;28.81
67555;HTU21D;54385;53.516;49.456;2023-05-07T14:40:45;11.58;28.36
67555;HTU21D;54385;53.516;49.456;2023-05-07T14:43:11;11.57;28.85
67555;HTU21D;54385;53.516;49.456;2023-05-07T14:45:38;11.52;29.26
67555;HTU21D;54385;53.516;49.456;2023-05-07T14:48:05;11.37;29.32
67555;HTU21D;54385;53.516;49.456;2023-05-07T14:50:35;11.15;29.54
67555;HTU21D;54385;53.516;49.456;2023-05-07T14:53:02;10.95;29.42
67555;HTU21D;54385;53.516;49.456;2023-05-07T14:55:28;10.95;29.32
67555;HTU21D;54385;53.516;49.456;2023-05-07T14:57:55;10.86;29.82
67555;HTU21D;54385;53.516;49.456;2023-05-07T15:00:22;10.93;29.68
67555;HTU21D;54385;53.516;49.456;2023-05-07T15:02:49;10.97;30.03
67555;HTU21D;54385;53.516;49.456;2023-05-07T15:05:16;10.93;30.65
67555;HTU21D;54385;53.516;49.456;2023-05-07T15:07:44;10.92;30.00
67555;HTU21D;54385;53.516;49.456;2023-05-07T15:10:11;10.87;29.65
67555;HTU21D;54385;53.516;49.456;2023-05-07T15:12:38;10.90;30.01
67555;HTU21D;54385;53.516;49.456;2023-05-07T15:15:05;10.83;29.77
67555;HTU21D;54385;53.516;49.456;2023-05-07T15:17:32;10.53;30.51
67555;HTU21D;54385;53.516;49.456;2023-05-07T15:19:59;10.49;30.85
67555;HTU21D;54385;53.516;49.456;2023-05-07T15:22:26;10.58;31.06